sensor_id;sensor_type;location;lat;lon;timestamp;P1;durP1;ratioP1;P2;durP2;ratioP2
49235;SDS011;35067;48.134;8.378;2023-06-22T00:00:31;11.37;;;7.23;;
49235;SDS011;35067;48.134;8.378;2023-06-22T00:01:31;11.97;;;7.63;;
49235;SDS011;35067;48.134;8.378;2023-06-22T00:02:32;9.30;;;7.27;;
49235;SDS011;35067;48.134;8.378;2023-06-22T00:03:33;8.50;;;7.20;;
49235;SDS011;35067;48.134;8.378;2023-06-22T00:04:33;14.23;;;7.33;;
49235;SDS011;35067;48.134;8.378;2023-06-22T00:05:34;10.70;;;8.03;;
49235;SDS011;35067;48.134;8.378;2023-06-22T00:06:35;10.93;;;7.90;;
49235;SDS011;35067;48.134;8.378;2023-06-22T00:07:35;9.97;;;7.57;;
49235;SDS011;35067;48.134;8.378;2023-06-22T00:08:36;12.07;;;7.53;;
49235;SDS011;35067;48.134;8.378;2023-06-22T00:09:37;14.30;;;8.30;;
49235;SDS011;35067;48.134;8.378;2023-06-22T00:10:37;11.67;;;8.23;;
49235;SDS011;35067;48.134;8.378;2023-06-22T00:11:38;14.20;;;7.40;;
49235;SDS011;35067;48.134;8.378;2023-06-22T00:12:39;10.73;;;8.27;;
49235;SDS011;35067;48.134;8.378;2023-06-22T00:13:40;9.93;;;7.73;;
49235;SDS011;35067;48.134;8.378;2023-06-22T00:14:40;10.37;;;7.07;;
49235;SDS011;35067;48.134;8.378;2023-06-22T00:15:41;13.23;;;8.13;;
49235;SDS011;35067;48.134;8.378;2023-06-22T00:16:42;12.93;;;8.53;;
49235;SDS011;35067;48.134;8.378;2023-06-22T00:17:43;13.73;;;8.63;;
49235;SDS011;35067;48.134;8.378;2023-06-22T00:18:44;10.97;;;7.40;;
49235;SDS011;35067;48.134;8.378;2023-06-22T00:19:47;12.40;;;7.60;;
49235;SDS011;35067;48.134;8.378;2023-06-22T00:20:55;12.50;;;7.80;;
49235;SDS011;35067;48.134;8.378;2023-06-22T00:21:57;10.67;;;8.27;;
49235;SDS011;35067;48.134;8.378;2023-06-22T00:23:00;8.13;;;6.70;;
49235;SDS011;35067;48.134;8.378;2023-06-22T00:24:00;10.10;;;7.17;;
49235;SDS011;35067;48.134;8.378;2023-06-22T00:25:02;10.20;;;7.43;;
49235;SDS011;35067;48.134;8.378;2023-06-22T00:26:03;12.40;;;7.73;;
49235;SDS011;35067;48.134;8.378;2023-06-22T00:27:04;12.07;;;8.03;;
49235;SDS011;35067;48.134;8.378;2023-06-22T00:28:06;12.33;;;8.03;;
49235;SDS011;35067;48.134;8.378;2023-06-22T00:29:07;11.30;;;8.60;;
49235;SDS011;35067;48.134;8.378;2023-06-22T00:30:08;10.37;;;8.00;;
49235;SDS011;35067;48.134;8.378;2023-06-22T00:31:09;12.37;;;8.40;;
49235;SDS011;35067;48.134;8.378;2023-06-22T00:32:10;14.53;;;8.20;;
49235;SDS011;35067;48.134;8.378;2023-06-22T00:33:11;13.30;;;7.57;;
49235;SDS011;35067;48.134;8.378;2023-06-22T00:34:11;14.13;;;8.63;;
49235;SDS011;35067;48.134;8.378;2023-06-22T00:35:12;11.63;;;7.43;;
49235;SDS011;35067;48.134;8.378;2023-06-22T00:36:13;10.00;;;7.13;;
49235;SDS011;35067;48.134;8.378;2023-06-22T00:37:16;9.37;;;7.03;;
49235;SDS011;35067;48.134;8.378;2023-06-22T00:38:18;11.23;;;7.90;;
49235;SDS011;35067;48.134;8.378;2023-06-22T00:39:18;14.43;;;8.13;;
49235;SDS011;35067;48.134;8.378;2023-06-22T00:40:19;11.53;;;8.10;;
49235;SDS011;35067;48.134;8.378;2023-06-22T00:41:21;10.80;;;7.50;;
49235;SDS011;35067;48.134;8.378;2023-06-22T00:42:22;11.30;;;8.00;;
49235;SDS011;35067;48.134;8.378;2023-06-22T00:43:23;12.53;;;7.03;;
49235;SDS011;35067;48.134;8.378;2023-06-22T00:44:24;11.50;;;7.60;;
49235;SDS011;35067;48.134;8.378;2023-06-22T00:45:25;13.27;;;8.77;;
49235;SDS011;35067;48.134;8.378;2023-06-22T00:46:26;11.43;;;8.33;;
49235;SDS011;35067;48.134;8.378;2023-06-22T00:47:27;11.27;;;7.47;;
49235;SDS011;35067;48.134;8.378;2023-06-22T00:48:28;14.53;;;8.40;;
49235;SDS011;35067;48.134;8.378;2023-06-22T00:49:29;9.63;;;7.50;;
49235;SDS011;35067;48.134;8.378;2023-06-22T00:50:31;11.47;;;7.43;;
49235;SDS011;35067;48.134;8.378;2023-06-22T00:51:35;9.37;;;6.87;;
49235;SDS011;35067;48.134;8.378;2023-06-22T00:52:38;11.17;;;8.30;;
49235;SDS011;35067;48.134;8.378;2023-06-22T00:53:46;11.63;;;7.20;;
49235;SDS011;35067;48.134;8.378;2023-06-22T00:54:47;13.63;;;8.47;;
49235;SDS011;35067;48.134;8.378;2023-06-22T00:55:49;15.33;;;8.97;;
49235;SDS011;35067;48.134;8.378;2023-06-22T00:56:55;12.47;;;8.00;;
49235;SDS011;35067;48.134;8.378;2023-06-22T00:57:57;11.47;;;8.03;;
49235;SDS011;35067;48.134;8.378;2023-06-22T00:58:58;10.60;;;8.20;;
49235;SDS011;35067;48.134;8.378;2023-06-22T00:59:59;13.03;;;8.80;;
49235;SDS011;35067;48.134;8.378;2023-06-22T01:01:00;11.70;;;8.30;;
49235;SDS011;35067;48.134;8.378;2023-06-22T01:02:01;12.00;;;8.90;;
49235;SDS011;35067;48.134;8.378;2023-06-22T01:03:02;16.63;;;9.67;;
49235;SDS011;35067;48.134;8.378;2023-06-22T01:04:03;14.43;;;8.87;;
49235;SDS011;35067;48.134;8.378;2023-06-22T01:05:05;14.20;;;9.30;;
49235;SDS011;35067;48.134;8.378;2023-06-22T01:06:10;12.77;;;9.23;;
49235;SDS011;35067;48.134;8.378;2023-06-22T01:09:00;16.80;;;8.43;;
49235;SDS011;35067;48.134;8.378;2023-06-22T01:11:37;13.40;;;8.40;;
49235;SDS011;35067;48.134;8.378;2023-06-22T01:12:48;13.73;;;9.50;;
49235;SDS011;35067;48.134;8.378;2023-06-22T01:13:57;11.67;;;8.37;;
49235;SDS011;35067;48.134;8.378;2023-06-22T01:15:11;13.63;;;9.27;;
49235;SDS011;35067;48.134;8.378;2023-06-22T01:16:23;14.73;;;8.73;;
49235;SDS011;35067;48.134;8.378;2023-06-22T01:17:30;13.07;;;9.53;;
49235;SDS011;35067;48.134;8.378;2023-06-22T01:18:32;16.50;;;8.97;;
49235;SDS011;35067;48.134;8.378;2023-06-22T01:20:55;14.90;;;9.37;;
49235;SDS011;35067;48.134;8.378;2023-06-22T01:21:57;15.33;;;9.80;;
49235;SDS011;35067;48.134;8.378;2023-06-22T01:26:25;15.77;;;9.17;;
49235;SDS011;35067;48.134;8.378;2023-06-22T01:28:11;12.03;;;8.37;;
49235;SDS011;35067;48.134;8.378;2023-06-22T01:29:42;15.33;;;8.87;;
49235;SDS011;35067;48.134;8.378;2023-06-22T01:30:45;18.43;;;10.37;;
49235;SDS011;35067;48.134;8.378;2023-06-22T01:31:49;13.97;;;9.23;;
49235;SDS011;35067;48.134;8.378;2023-06-22T01:32:53;14.30;;;9.03;;
49235;SDS011;35067;48.134;8.378;2023-06-22T01:33:57;12.27;;;8.83;;
49235;SDS011;35067;48.134;8.378;2023-06-22T01:35:03;14.67;;;9.33;;
49235;SDS011;35067;48.134;8.378;2023-06-22T01:36:06;12.23;;;9.07;;
49235;SDS011;35067;48.134;8.378;2023-06-22T01:37:08;16.73;;;9.00;;
49235;SDS011;35067;48.134;8.378;2023-06-22T01:38:09;15.33;;;8.90;;
49235;SDS011;35067;48.134;8.378;2023-06-22T01:39:11;12.67;;;9.43;;
49235;SDS011;35067;48.134;8.378;2023-06-22T01:40:13;13.63;;;8.90;;
49235;SDS011;35067;48.134;8.378;2023-06-22T01:41:15;11.13;;;8.70;;
49235;SDS011;35067;48.134;8.378;2023-06-22T01:42:17;13.30;;;8.77;;
49235;SDS011;35067;48.134;8.378;2023-06-22T01:43:17;17.07;;;10.10;;
49235;SDS011;35067;48.134;8.378;2023-06-22T01:44:23;16.63;;;10.30;;
49235;SDS011;35067;48.134;8.378;2023-06-22T01:45:25;12.67;;;9.00;;
49235;SDS011;35067;48.134;8.378;2023-06-22T01:46:27;11.87;;;8.07;;
49235;SDS011;35067;48.134;8.378;2023-06-22T01:47:29;13.20;;;9.47;;
49235;SDS011;35067;48.134;8.378;2023-06-22T01:48:30;9.93;;;7.80;;
49235;SDS011;35067;48.134;8.378;2023-06-22T01:49:32;14.83;;;10.13;;
49235;SDS011;35067;48.134;8.378;2023-06-22T01:50:33;12.63;;;8.47;;
49235;SDS011;35067;48.134;8.378;2023-06-22T01:51:33;13.23;;;9.77;;
49235;SDS011;35067;48.134;8.378;2023-06-22T01:52:34;13.37;;;9.40;;
49235;SDS011;35067;48.134;8.378;2023-06-22T01:53:35;13.77;;;9.10;;
49235;SDS011;35067;48.134;8.378;2023-06-22T01:54:37;14.47;;;9.37;;
49235;SDS011;35067;48.134;8.378;2023-06-22T01:55:40;12.57;;;8.43;;
49235;SDS011;35067;48.134;8.378;2023-06-22T01:56:40;12.27;;;8.27;;
49235;SDS011;35067;48.134;8.378;2023-06-22T01:57:41;13.70;;;8.87;;
49235;SDS011;35067;48.134;8.378;2023-06-22T01:58:45;16.83;;;10.17;;
49235;SDS011;35067;48.134;8.378;2023-06-22T01:59:59;18.47;;;10.07;;
49235;SDS011;35067;48.134;8.378;2023-06-22T02:01:11;16.53;;;9.20;;
49235;SDS011;35067;48.134;8.378;2023-06-22T02:02:14;13.47;;;9.80;;
49235;SDS011;35067;48.134;8.378;2023-06-22T02:03:21;15.63;;;9.87;;
49235;SDS011;35067;48.134;8.378;2023-06-22T02:04:27;12.03;;;8.83;;
49235;SDS011;35067;48.134;8.378;2023-06-22T02:05:38;17.90;;;9.03;;
49235;SDS011;35067;48.134;8.378;2023-06-22T02:06:47;14.93;;;9.47;;
49235;SDS011;35067;48.134;8.378;2023-06-22T02:08:11;15.17;;;9.70;;
49235;SDS011;35067;48.134;8.378;2023-06-22T02:09:20;15.23;;;9.67;;
49235;SDS011;35067;48.134;8.378;2023-06-22T02:10:23;16.13;;;10.40;;
49235;SDS011;35067;48.134;8.378;2023-06-22T02:11:25;16.47;;;9.53;;
49235;SDS011;35067;48.134;8.378;2023-06-22T02:12:28;16.67;;;10.47;;
49235;SDS011;35067;48.134;8.378;2023-06-22T02:13:31;19.17;;;10.40;;
49235;SDS011;35067;48.134;8.378;2023-06-22T02:14:33;13.77;;;10.07;;
49235;SDS011;35067;48.134;8.378;2023-06-22T02:15:35;15.23;;;9.13;;
49235;SDS011;35067;48.134;8.378;2023-06-22T02:16:37;13.60;;;9.63;;
49235;SDS011;35067;48.134;8.378;2023-06-22T02:17:38;15.10;;;10.23;;
49235;SDS011;35067;48.134;8.378;2023-06-22T02:18:45;15.27;;;9.53;;
49235;SDS011;35067;48.134;8.378;2023-06-22T02:19:47;14.00;;;8.63;;
49235;SDS011;35067;48.134;8.378;2023-06-22T02:20:48;14.67;;;9.43;;
49235;SDS011;35067;48.134;8.378;2023-06-22T02:21:49;12.50;;;8.97;;
49235;SDS011;35067;48.134;8.378;2023-06-22T02:22:50;15.60;;;8.80;;
49235;SDS011;35067;48.134;8.378;2023-06-22T02:23:50;10.40;;;8.50;;
49235;SDS011;35067;48.134;8.378;2023-06-22T02:24:51;12.23;;;9.30;;
49235;SDS011;35067;48.134;8.378;2023-06-22T02:25:53;14.80;;;9.47;;
49235;SDS011;35067;48.134;8.378;2023-06-22T02:26:53;11.50;;;8.60;;
49235;SDS011;35067;48.134;8.378;2023-06-22T02:27:54;14.37;;;8.57;;
49235;SDS011;35067;48.134;8.378;2023-06-22T02:28:55;13.47;;;8.17;;
49235;SDS011;35067;48.134;8.378;2023-06-22T02:29:56;17.10;;;10.83;;
49235;SDS011;35067;48.134;8.378;2023-06-22T02:30:57;16.90;;;10.20;;
49235;SDS011;35067;48.134;8.378;2023-06-22T02:31:58;15.07;;;10.70;;
49235;SDS011;35067;48.134;8.378;2023-06-22T02:32:58;13.07;;;10.20;;
49235;SDS011;35067;48.134;8.378;2023-06-22T02:33:59;17.07;;;10.57;;
49235;SDS011;35067;48.134;8.378;2023-06-22T02:35:00;17.23;;;11.83;;
49235;SDS011;35067;48.134;8.378;2023-06-22T02:36:04;16.40;;;11.23;;
49235;SDS011;35067;48.134;8.378;2023-06-22T02:37:05;13.23;;;9.50;;
49235;SDS011;35067;48.134;8.378;2023-06-22T02:38:05;15.60;;;10.50;;
49235;SDS011;35067;48.134;8.378;2023-06-22T02:39:06;15.07;;;9.67;;
49235;SDS011;35067;48.134;8.378;2023-06-22T02:40:07;17.03;;;10.47;;
49235;SDS011;35067;48.134;8.378;2023-06-22T02:41:09;16.77;;;10.50;;
49235;SDS011;35067;48.134;8.378;2023-06-22T02:42:13;18.17;;;11.10;;
49235;SDS011;35067;48.134;8.378;2023-06-22T02:43:14;17.67;;;11.07;;
49235;SDS011;35067;48.134;8.378;2023-06-22T02:44:15;13.97;;;10.30;;
49235;SDS011;35067;48.134;8.378;2023-06-22T02:45:16;16.83;;;10.73;;
49235;SDS011;35067;48.134;8.378;2023-06-22T02:46:16;16.20;;;10.50;;
49235;SDS011;35067;48.134;8.378;2023-06-22T02:47:17;17.87;;;10.03;;
49235;SDS011;35067;48.134;8.378;2023-06-22T02:48:18;18.77;;;11.43;;
49235;SDS011;35067;48.134;8.378;2023-06-22T02:49:19;24.47;;;11.67;;
49235;SDS011;35067;48.134;8.378;2023-06-22T02:50:19;13.70;;;10.47;;
49235;SDS011;35067;48.134;8.378;2023-06-22T02:51:20;17.93;;;11.00;;
49235;SDS011;35067;48.134;8.378;2023-06-22T02:52:21;16.13;;;11.03;;
49235;SDS011;35067;48.134;8.378;2023-06-22T02:53:21;15.57;;;10.20;;
49235;SDS011;35067;48.134;8.378;2023-06-22T02:54:22;20.93;;;12.17;;
49235;SDS011;35067;48.134;8.378;2023-06-22T02:55:23;17.83;;;11.20;;
49235;SDS011;35067;48.134;8.378;2023-06-22T02:56:24;16.17;;;10.90;;
49235;SDS011;35067;48.134;8.378;2023-06-22T02:57:24;20.07;;;11.63;;
49235;SDS011;35067;48.134;8.378;2023-06-22T02:58:25;18.70;;;11.13;;
49235;SDS011;35067;48.134;8.378;2023-06-22T02:59:26;18.77;;;10.63;;
49235;SDS011;35067;48.134;8.378;2023-06-22T03:00:27;20.10;;;11.37;;
49235;SDS011;35067;48.134;8.378;2023-06-22T03:01:30;19.53;;;11.97;;
49235;SDS011;35067;48.134;8.378;2023-06-22T03:02:39;14.03;;;10.07;;
49235;SDS011;35067;48.134;8.378;2023-06-22T03:03:40;14.27;;;9.70;;
49235;SDS011;35067;48.134;8.378;2023-06-22T03:04:41;16.60;;;10.83;;
49235;SDS011;35067;48.134;8.378;2023-06-22T03:05:42;17.73;;;11.30;;
49235;SDS011;35067;48.134;8.378;2023-06-22T03:06:43;14.60;;;9.47;;
49235;SDS011;35067;48.134;8.378;2023-06-22T03:07:44;14.33;;;9.17;;
49235;SDS011;35067;48.134;8.378;2023-06-22T03:08:45;11.93;;;8.97;;
49235;SDS011;35067;48.134;8.378;2023-06-22T03:09:46;12.23;;;8.63;;
49235;SDS011;35067;48.134;8.378;2023-06-22T03:10:46;15.27;;;9.93;;
49235;SDS011;35067;48.134;8.378;2023-06-22T03:11:47;11.70;;;8.63;;
49235;SDS011;35067;48.134;8.378;2023-06-22T03:12:48;14.33;;;9.80;;
49235;SDS011;35067;48.134;8.378;2023-06-22T03:13:49;19.13;;;11.83;;
49235;SDS011;35067;48.134;8.378;2023-06-22T03:14:52;17.83;;;10.60;;
49235;SDS011;35067;48.134;8.378;2023-06-22T03:15:52;17.00;;;9.97;;
49235;SDS011;35067;48.134;8.378;2023-06-22T03:16:53;15.63;;;9.90;;
49235;SDS011;35067;48.134;8.378;2023-06-22T03:17:54;18.37;;;11.33;;
49235;SDS011;35067;48.134;8.378;2023-06-22T03:18:55;15.63;;;11.30;;
49235;SDS011;35067;48.134;8.378;2023-06-22T03:19:55;13.70;;;10.00;;
49235;SDS011;35067;48.134;8.378;2023-06-22T03:20:56;13.07;;;9.33;;
49235;SDS011;35067;48.134;8.378;2023-06-22T03:21:57;13.37;;;9.03;;
49235;SDS011;35067;48.134;8.378;2023-06-22T03:23:00;14.20;;;10.03;;
49235;SDS011;35067;48.134;8.378;2023-06-22T03:24:00;15.13;;;9.67;;
49235;SDS011;35067;48.134;8.378;2023-06-22T03:25:01;18.17;;;11.07;;
49235;SDS011;35067;48.134;8.378;2023-06-22T03:26:02;15.17;;;10.60;;
49235;SDS011;35067;48.134;8.378;2023-06-22T03:27:04;16.80;;;10.00;;
49235;SDS011;35067;48.134;8.378;2023-06-22T03:28:05;17.37;;;10.57;;
49235;SDS011;35067;48.134;8.378;2023-06-22T03:29:06;16.13;;;10.87;;
49235;SDS011;35067;48.134;8.378;2023-06-22T03:30:07;18.90;;;11.43;;
49235;SDS011;35067;48.134;8.378;2023-06-22T03:31:10;16.10;;;10.03;;
49235;SDS011;35067;48.134;8.378;2023-06-22T03:32:11;15.20;;;10.57;;
49235;SDS011;35067;48.134;8.378;2023-06-22T03:33:12;19.23;;;11.90;;
49235;SDS011;35067;48.134;8.378;2023-06-22T03:34:12;18.83;;;11.07;;
49235;SDS011;35067;48.134;8.378;2023-06-22T03:35:13;18.50;;;11.40;;
49235;SDS011;35067;48.134;8.378;2023-06-22T03:36:14;16.57;;;11.37;;
49235;SDS011;35067;48.134;8.378;2023-06-22T03:37:22;17.37;;;11.00;;
49235;SDS011;35067;48.134;8.378;2023-06-22T03:38:23;19.60;;;11.53;;
49235;SDS011;35067;48.134;8.378;2023-06-22T03:39:23;16.27;;;10.53;;
49235;SDS011;35067;48.134;8.378;2023-06-22T03:40:24;13.13;;;9.27;;
49235;SDS011;35067;48.134;8.378;2023-06-22T03:41:25;12.60;;;8.80;;
49235;SDS011;35067;48.134;8.378;2023-06-22T03:42:26;13.60;;;10.03;;
49235;SDS011;35067;48.134;8.378;2023-06-22T03:43:27;15.80;;;9.53;;
49235;SDS011;35067;48.134;8.378;2023-06-22T03:44:27;13.90;;;8.93;;
49235;SDS011;35067;48.134;8.378;2023-06-22T03:45:28;14.03;;;9.07;;
49235;SDS011;35067;48.134;8.378;2023-06-22T03:46:29;12.67;;;9.33;;
49235;SDS011;35067;48.134;8.378;2023-06-22T03:47:29;14.10;;;9.60;;
49235;SDS011;35067;48.134;8.378;2023-06-22T03:48:30;14.03;;;9.00;;
49235;SDS011;35067;48.134;8.378;2023-06-22T03:49:31;15.27;;;9.77;;
49235;SDS011;35067;48.134;8.378;2023-06-22T03:50:32;13.13;;;9.23;;
49235;SDS011;35067;48.134;8.378;2023-06-22T03:51:33;13.13;;;8.70;;
49235;SDS011;35067;48.134;8.378;2023-06-22T03:52:33;13.97;;;9.70;;
49235;SDS011;35067;48.134;8.378;2023-06-22T03:53:34;15.13;;;9.97;;
49235;SDS011;35067;48.134;8.378;2023-06-22T03:54:35;14.93;;;8.67;;
49235;SDS011;35067;48.134;8.378;2023-06-22T03:55:36;13.30;;;9.10;;
49235;SDS011;35067;48.134;8.378;2023-06-22T03:56:36;17.57;;;11.63;;
49235;SDS011;35067;48.134;8.378;2023-06-22T03:57:38;14.33;;;9.40;;
49235;SDS011;35067;48.134;8.378;2023-06-22T03:58:39;18.27;;;10.90;;
49235;SDS011;35067;48.134;8.378;2023-06-22T03:59:42;15.10;;;9.83;;
49235;SDS011;35067;48.134;8.378;2023-06-22T04:00:43;17.97;;;11.37;;
49235;SDS011;35067;48.134;8.378;2023-06-22T04:01:50;15.43;;;9.93;;
49235;SDS011;35067;48.134;8.378;2023-06-22T04:02:51;13.07;;;8.90;;
49235;SDS011;35067;48.134;8.378;2023-06-22T04:03:52;16.63;;;10.53;;
49235;SDS011;35067;48.134;8.378;2023-06-22T04:04:52;20.50;;;11.07;;
49235;SDS011;35067;48.134;8.378;2023-06-22T04:05:53;22.50;;;12.33;;
49235;SDS011;35067;48.134;8.378;2023-06-22T04:06:54;20.47;;;11.67;;
49235;SDS011;35067;48.134;8.378;2023-06-22T04:07:55;19.87;;;11.20;;
49235;SDS011;35067;48.134;8.378;2023-06-22T04:08:55;18.17;;;11.10;;
49235;SDS011;35067;48.134;8.378;2023-06-22T04:09:56;16.77;;;9.93;;
49235;SDS011;35067;48.134;8.378;2023-06-22T04:10:57;14.37;;;9.63;;
49235;SDS011;35067;48.134;8.378;2023-06-22T04:11:57;16.73;;;10.83;;
49235;SDS011;35067;48.134;8.378;2023-06-22T04:12:58;19.07;;;10.10;;
49235;SDS011;35067;48.134;8.378;2023-06-22T04:14:00;15.27;;;10.23;;
49235;SDS011;35067;48.134;8.378;2023-06-22T04:15:01;17.27;;;10.10;;
49235;SDS011;35067;48.134;8.378;2023-06-22T04:16:02;13.23;;;9.53;;
49235;SDS011;35067;48.134;8.378;2023-06-22T04:17:02;15.93;;;9.40;;
49235;SDS011;35067;48.134;8.378;2023-06-22T04:18:04;16.20;;;10.37;;
49235;SDS011;35067;48.134;8.378;2023-06-22T04:19:05;14.37;;;9.97;;
49235;SDS011;35067;48.134;8.378;2023-06-22T04:20:06;14.33;;;10.13;;
49235;SDS011;35067;48.134;8.378;2023-06-22T04:21:07;14.07;;;9.03;;
49235;SDS011;35067;48.134;8.378;2023-06-22T04:22:08;15.37;;;9.87;;
49235;SDS011;35067;48.134;8.378;2023-06-22T04:23:10;19.17;;;11.10;;
49235;SDS011;35067;48.134;8.378;2023-06-22T04:24:11;15.97;;;10.53;;
49235;SDS011;35067;48.134;8.378;2023-06-22T04:25:12;15.50;;;10.07;;
49235;SDS011;35067;48.134;8.378;2023-06-22T04:26:12;18.53;;;10.90;;
49235;SDS011;35067;48.134;8.378;2023-06-22T04:27:14;15.90;;;10.97;;
49235;SDS011;35067;48.134;8.378;2023-06-22T04:28:14;16.67;;;10.90;;
49235;SDS011;35067;48.134;8.378;2023-06-22T04:29:15;16.90;;;10.40;;
49235;SDS011;35067;48.134;8.378;2023-06-22T04:30:16;18.17;;;10.83;;
49235;SDS011;35067;48.134;8.378;2023-06-22T04:31:17;17.87;;;11.50;;
49235;SDS011;35067;48.134;8.378;2023-06-22T04:32:21;13.00;;;9.50;;
49235;SDS011;35067;48.134;8.378;2023-06-22T04:33:21;15.93;;;10.60;;
49235;SDS011;35067;48.134;8.378;2023-06-22T04:34:22;19.33;;;10.83;;
49235;SDS011;35067;48.134;8.378;2023-06-22T04:35:26;18.33;;;11.30;;
49235;SDS011;35067;48.134;8.378;2023-06-22T04:36:30;18.33;;;12.13;;
49235;SDS011;35067;48.134;8.378;2023-06-22T04:37:40;15.13;;;10.23;;
49235;SDS011;35067;48.134;8.378;2023-06-22T04:38:41;15.30;;;10.57;;
49235;SDS011;35067;48.134;8.378;2023-06-22T04:39:42;17.60;;;11.00;;
49235;SDS011;35067;48.134;8.378;2023-06-22T04:40:43;15.70;;;11.10;;
49235;SDS011;35067;48.134;8.378;2023-06-22T04:41:44;12.87;;;9.57;;
49235;SDS011;35067;48.134;8.378;2023-06-22T04:42:45;21.73;;;11.60;;
49235;SDS011;35067;48.134;8.378;2023-06-22T04:43:52;17.57;;;11.20;;
49235;SDS011;35067;48.134;8.378;2023-06-22T04:44:54;20.70;;;12.57;;
49235;SDS011;35067;48.134;8.378;2023-06-22T04:45:54;19.13;;;11.90;;
49235;SDS011;35067;48.134;8.378;2023-06-22T04:46:56;23.23;;;11.77;;
49235;SDS011;35067;48.134;8.378;2023-06-22T04:48:04;17.20;;;11.23;;
49235;SDS011;35067;48.134;8.378;2023-06-22T04:49:08;18.40;;;11.10;;
49235;SDS011;35067;48.134;8.378;2023-06-22T04:50:09;19.80;;;11.33;;
49235;SDS011;35067;48.134;8.378;2023-06-22T04:51:10;13.73;;;9.97;;
49235;SDS011;35067;48.134;8.378;2023-06-22T04:52:11;12.83;;;9.73;;
49235;SDS011;35067;48.134;8.378;2023-06-22T04:53:13;14.67;;;10.10;;
49235;SDS011;35067;48.134;8.378;2023-06-22T04:54:14;14.77;;;10.10;;
49235;SDS011;35067;48.134;8.378;2023-06-22T04:55:15;16.10;;;10.73;;
49235;SDS011;35067;48.134;8.378;2023-06-22T04:56:18;14.87;;;10.57;;
49235;SDS011;35067;48.134;8.378;2023-06-22T04:57:21;14.13;;;10.33;;
49235;SDS011;35067;48.134;8.378;2023-06-22T04:58:30;16.97;;;11.93;;
49235;SDS011;35067;48.134;8.378;2023-06-22T04:59:32;14.37;;;10.40;;
49235;SDS011;35067;48.134;8.378;2023-06-22T05:00:33;17.17;;;11.63;;
49235;SDS011;35067;48.134;8.378;2023-06-22T05:01:36;15.80;;;10.03;;
49235;SDS011;35067;48.134;8.378;2023-06-22T05:02:40;14.00;;;10.63;;
49235;SDS011;35067;48.134;8.378;2023-06-22T05:03:41;16.63;;;11.23;;
49235;SDS011;35067;48.134;8.378;2023-06-22T05:04:41;16.50;;;10.33;;
49235;SDS011;35067;48.134;8.378;2023-06-22T05:05:42;16.30;;;10.37;;
49235;SDS011;35067;48.134;8.378;2023-06-22T05:06:43;16.67;;;11.23;;
49235;SDS011;35067;48.134;8.378;2023-06-22T05:07:46;21.43;;;13.00;;
49235;SDS011;35067;48.134;8.378;2023-06-22T05:08:48;16.00;;;10.53;;
49235;SDS011;35067;48.134;8.378;2023-06-22T05:09:48;16.87;;;10.63;;
49235;SDS011;35067;48.134;8.378;2023-06-22T05:10:49;19.50;;;12.80;;
49235;SDS011;35067;48.134;8.378;2023-06-22T05:11:50;18.80;;;11.47;;
49235;SDS011;35067;48.134;8.378;2023-06-22T05:12:51;17.50;;;11.57;;
49235;SDS011;35067;48.134;8.378;2023-06-22T05:13:52;18.20;;;11.40;;
49235;SDS011;35067;48.134;8.378;2023-06-22T05:14:53;18.53;;;11.97;;
49235;SDS011;35067;48.134;8.378;2023-06-22T05:15:54;16.57;;;10.83;;
49235;SDS011;35067;48.134;8.378;2023-06-22T05:17:01;16.40;;;11.77;;
49235;SDS011;35067;48.134;8.378;2023-06-22T05:18:03;15.40;;;11.30;;
49235;SDS011;35067;48.134;8.378;2023-06-22T05:19:05;17.90;;;11.23;;
49235;SDS011;35067;48.134;8.378;2023-06-22T05:20:06;16.63;;;10.63;;
49235;SDS011;35067;48.134;8.378;2023-06-22T05:21:08;15.67;;;11.33;;
49235;SDS011;35067;48.134;8.378;2023-06-22T05:22:09;19.63;;;11.60;;
49235;SDS011;35067;48.134;8.378;2023-06-22T05:23:12;21.63;;;11.37;;
49235;SDS011;35067;48.134;8.378;2023-06-22T05:24:14;15.97;;;10.43;;
49235;SDS011;35067;48.134;8.378;2023-06-22T05:25:15;19.43;;;11.73;;
49235;SDS011;35067;48.134;8.378;2023-06-22T05:26:16;15.00;;;10.77;;
49235;SDS011;35067;48.134;8.378;2023-06-22T05:27:18;15.20;;;11.13;;
49235;SDS011;35067;48.134;8.378;2023-06-22T05:28:19;17.63;;;11.53;;
49235;SDS011;35067;48.134;8.378;2023-06-22T05:29:22;15.53;;;10.87;;
49235;SDS011;35067;48.134;8.378;2023-06-22T05:30:23;18.60;;;12.57;;
49235;SDS011;35067;48.134;8.378;2023-06-22T05:31:24;19.63;;;12.07;;
49235;SDS011;35067;48.134;8.378;2023-06-22T05:32:25;18.83;;;11.50;;
49235;SDS011;35067;48.134;8.378;2023-06-22T05:33:25;17.20;;;11.10;;
49235;SDS011;35067;48.134;8.378;2023-06-22T05:34:26;19.93;;;11.73;;
49235;SDS011;35067;48.134;8.378;2023-06-22T05:35:27;16.53;;;11.93;;
49235;SDS011;35067;48.134;8.378;2023-06-22T05:36:28;18.73;;;11.43;;
49235;SDS011;35067;48.134;8.378;2023-06-22T05:37:29;18.07;;;11.40;;
49235;SDS011;35067;48.134;8.378;2023-06-22T05:38:30;14.73;;;11.00;;
49235;SDS011;35067;48.134;8.378;2023-06-22T05:39:31;15.07;;;10.43;;
49235;SDS011;35067;48.134;8.378;2023-06-22T05:40:31;16.17;;;11.20;;
49235;SDS011;35067;48.134;8.378;2023-06-22T05:41:32;18.20;;;11.27;;
49235;SDS011;35067;48.134;8.378;2023-06-22T05:42:33;15.57;;;11.40;;
49235;SDS011;35067;48.134;8.378;2023-06-22T05:43:33;15.23;;;10.40;;
49235;SDS011;35067;48.134;8.378;2023-06-22T05:44:34;17.97;;;11.30;;
49235;SDS011;35067;48.134;8.378;2023-06-22T05:45:35;18.83;;;11.20;;
49235;SDS011;35067;48.134;8.378;2023-06-22T05:46:36;17.57;;;10.93;;
49235;SDS011;35067;48.134;8.378;2023-06-22T05:47:39;15.83;;;10.40;;
49235;SDS011;35067;48.134;8.378;2023-06-22T05:48:40;14.00;;;10.30;;
49235;SDS011;35067;48.134;8.378;2023-06-22T05:49:41;14.20;;;10.20;;
49235;SDS011;35067;48.134;8.378;2023-06-22T05:50:42;17.70;;;11.30;;
49235;SDS011;35067;48.134;8.378;2023-06-22T05:51:43;14.13;;;10.03;;
49235;SDS011;35067;48.134;8.378;2023-06-22T05:52:44;17.80;;;11.07;;
49235;SDS011;35067;48.134;8.378;2023-06-22T05:53:44;16.37;;;11.30;;
49235;SDS011;35067;48.134;8.378;2023-06-22T05:54:49;16.93;;;10.60;;
49235;SDS011;35067;48.134;8.378;2023-06-22T05:55:50;12.83;;;9.97;;
49235;SDS011;35067;48.134;8.378;2023-06-22T05:56:51;14.87;;;10.13;;
49235;SDS011;35067;48.134;8.378;2023-06-22T05:57:51;14.73;;;10.70;;
49235;SDS011;35067;48.134;8.378;2023-06-22T05:58:52;17.87;;;11.10;;
49235;SDS011;35067;48.134;8.378;2023-06-22T05:59:53;15.00;;;10.03;;
49235;SDS011;35067;48.134;8.378;2023-06-22T06:00:54;11.77;;;9.13;;
49235;SDS011;35067;48.134;8.378;2023-06-22T06:01:55;14.80;;;10.13;;
49235;SDS011;35067;48.134;8.378;2023-06-22T06:02:55;15.53;;;10.73;;
49235;SDS011;35067;48.134;8.378;2023-06-22T06:03:56;13.73;;;10.37;;
49235;SDS011;35067;48.134;8.378;2023-06-22T06:04:57;16.13;;;10.67;;
49235;SDS011;35067;48.134;8.378;2023-06-22T06:05:58;14.17;;;10.20;;
49235;SDS011;35067;48.134;8.378;2023-06-22T06:06:59;12.03;;;9.17;;
49235;SDS011;35067;48.134;8.378;2023-06-22T06:08:01;17.07;;;11.10;;
49235;SDS011;35067;48.134;8.378;2023-06-22T06:09:04;13.63;;;9.30;;
49235;SDS011;35067;48.134;8.378;2023-06-22T06:10:07;16.63;;;10.73;;
49235;SDS011;35067;48.134;8.378;2023-06-22T06:11:09;16.03;;;10.83;;
49235;SDS011;35067;48.134;8.378;2023-06-22T06:12:10;15.73;;;10.47;;
49235;SDS011;35067;48.134;8.378;2023-06-22T06:13:10;13.10;;;9.43;;
49235;SDS011;35067;48.134;8.378;2023-06-22T06:14:11;12.03;;;9.67;;